Urb Sabana Llana, Puerto Rico
Current Conditions -  °F | °C
As of 10:56 PM on Saturday 24 Jan 2015 (Local Time) from TJSJ Reporting Station
Few Clouds Few Clouds  
Wind Chill: 76°   Ceiling: Unl
Heat Index: 76°   Visibility: 10mi
Dew Point: 72°   Wind: 0mph
Humidity: 87%   Direction: NA
Pressure: 30.05"   Gusts: NA
Location:  18.4051°N, 66.0126°W
Report Text: TJSJ 250256Z 00000KT 10SM FEW026 24/22 A3005 RMK AO2 SLP175 T02440222 50010
Loading
Personal Weather Stations






























Interactive Weather Map New forecast layout! Learn more

10-Day Weather Forecast

Advertisements
Track Severe Weather on mobile